createdAt,value
2022-08-17T00:00:44.163Z,4.10
2022-08-17T00:01:51.889Z,4.20
2022-08-17T00:03:05.389Z,3.90
2022-08-17T00:04:13.830Z,3.60
2022-08-17T00:05:24.886Z,3.40
2022-08-17T00:06:33.493Z,3.60
2022-08-17T00:07:41.968Z,4.00
2022-08-17T00:08:54.354Z,3.40
2022-08-17T00:10:02.096Z,3.60
2022-08-17T00:11:12.495Z,3.90
2022-08-17T00:12:42.870Z,4.60
2022-08-17T00:13:52.158Z,3.80
2022-08-17T00:15:05.325Z,3.80
2022-08-17T00:16:56.156Z,3.80
2022-08-17T00:18:01.458Z,3.30
2022-08-17T00:19:11.533Z,3.90
2022-08-17T00:20:20.813Z,3.70
2022-08-17T00:22:33.039Z,4.20
2022-08-17T00:23:07.781Z,4.20
2022-08-17T00:24:15.209Z,3.40
2022-08-17T00:25:22.300Z,4.10
2022-08-17T00:26:34.590Z,3.90
2022-08-17T00:27:51.897Z,3.80
2022-08-17T00:29:02.039Z,3.60
2022-08-17T00:30:10.162Z,4.10
2022-08-17T00:31:17.553Z,4.20
2022-08-17T00:33:22.894Z,3.80
2022-08-17T00:33:52.490Z,4.20
2022-08-17T00:34:59.561Z,4.60
2022-08-17T00:36:10.704Z,4.20
2022-08-17T00:37:18.059Z,4.10
2022-08-17T00:38:25.384Z,4.40
2022-08-17T00:39:32.371Z,4.10
2022-08-17T00:40:50.274Z,4.10
2022-08-17T00:41:58.926Z,4.40
2022-08-17T00:43:20.686Z,4.40
2022-08-17T00:44:30.347Z,4.10
2022-08-17T00:45:38.892Z,3.80
2022-08-17T00:46:46.174Z,4.00
2022-08-17T00:47:53.112Z,4.40
2022-08-17T00:49:01.813Z,4.10
2022-08-17T00:50:11.744Z,4.50
2022-08-17T00:51:26.119Z,3.80
2022-08-17T00:52:39.293Z,3.80
2022-08-17T00:53:50.762Z,4.20
2022-08-17T00:54:59.292Z,4.00
2022-08-17T00:56:08.471Z,3.80
2022-08-17T00:57:25.843Z,4.20
2022-08-17T00:58:36.224Z,4.50
2022-08-17T00:59:55.996Z,4.40
2022-08-17T01:01:10.664Z,4.10
2022-08-17T01:02:17.609Z,4.30
2022-08-17T01:03:29.087Z,4.40
2022-08-17T01:04:36.088Z,4.50
2022-08-17T01:05:43.347Z,3.90
2022-08-17T01:06:52.365Z,4.60
2022-08-17T01:08:00.092Z,4.40
2022-08-17T01:09:07.247Z,4.00
2022-08-17T01:10:59.824Z,4.30
2022-08-17T01:11:42.693Z,4.10
2022-08-17T01:12:50.905Z,4.00
2022-08-17T01:13:58.451Z,4.30
2022-08-17T01:15:06.692Z,4.50
2022-08-17T01:16:28.393Z,4.40
2022-08-17T01:17:35.687Z,4.20
2022-08-17T01:18:43.608Z,4.10
2022-08-17T01:19:50.865Z,4.10
2022-08-17T01:20:59.268Z,3.90
2022-08-17T01:22:17.458Z,4.50
2022-08-17T01:23:25.784Z,3.90
2022-08-17T01:24:33.790Z,4.20
2022-08-17T01:25:41.640Z,4.20
2022-08-17T01:26:48.578Z,3.90
2022-08-17T01:27:56.170Z,3.70
2022-08-17T01:29:03.775Z,4.30
2022-08-17T01:30:57.852Z,4.40
2022-08-17T01:31:47.344Z,4.20
2022-08-17T01:32:54.744Z,4.00
2022-08-17T01:34:03.223Z,4.40
2022-08-17T01:35:10.731Z,4.00
2022-08-17T01:36:20.920Z,4.70
2022-08-17T01:37:35.922Z,4.60
2022-08-17T01:38:43.458Z,4.40
2022-08-17T01:39:56.457Z,4.20
2022-08-17T01:41:05.941Z,4.80
2022-08-17T01:42:42.180Z,4.10
2022-08-17T01:43:57.583Z,4.00
2022-08-17T01:45:24.314Z,4.00
2022-08-17T01:46:34.635Z,4.30
2022-08-17T01:47:43.204Z,4.20
2022-08-17T01:48:50.430Z,4.40
2022-08-17T01:49:58.003Z,3.90
2022-08-17T01:51:07.170Z,4.60
2022-08-17T01:52:14.296Z,4.60
2022-08-17T01:53:42.502Z,4.50
2022-08-17T01:54:49.495Z,4.10
2022-08-17T01:56:00.774Z,4.70
2022-08-17T01:57:08.449Z,4.40
2022-08-17T01:58:15.816Z,4.10
2022-08-17T01:59:23.097Z,4.20
2022-08-17T02:00:59.485Z,3.90
2022-08-17T02:01:58.028Z,4.40
2022-08-17T02:03:05.319Z,3.90
2022-08-17T02:04:12.932Z,4.20
2022-08-17T02:05:19.961Z,3.90
2022-08-17T02:06:28.336Z,4.50
2022-08-17T02:07:48.007Z,4.50
2022-08-17T02:09:06.539Z,4.10
2022-08-17T02:10:24.459Z,4.50
2022-08-17T02:11:41.582Z,4.40
2022-08-17T02:12:50.268Z,4.50
2022-08-17T02:14:02.485Z,4.40
2022-08-17T02:15:13.647Z,4.40
2022-08-17T02:16:23.828Z,4.70
2022-08-17T02:17:30.982Z,4.60
2022-08-17T02:18:39.600Z,4.70
2022-08-17T02:19:46.840Z,4.50
2022-08-17T02:20:54.339Z,4.00
2022-08-17T02:22:01.767Z,4.70
2022-08-17T02:23:10.285Z,4.30
2022-08-17T02:24:59.510Z,4.70
2022-08-17T02:25:50.168Z,3.90
2022-08-17T02:26:57.469Z,4.40
2022-08-17T02:28:06.178Z,4.30
2022-08-17T02:29:13.381Z,4.60
2022-08-17T02:31:00.667Z,4.80
2022-08-17T02:31:48.056Z,4.50
2022-08-17T02:32:55.779Z,4.80
2022-08-17T02:34:03.888Z,4.50
2022-08-17T02:35:12.002Z,4.40
2022-08-17T02:36:21.149Z,4.30
2022-08-17T02:37:31.476Z,5.00
2022-08-17T02:38:39.642Z,4.40
2022-08-17T02:39:47.416Z,4.40
2022-08-17T02:40:54.652Z,4.40
2022-08-17T02:42:05.582Z,4.10
2022-08-17T02:43:12.830Z,3.90
2022-08-17T02:44:39.010Z,3.70
2022-08-17T02:45:47.787Z,4.40
2022-08-17T02:46:54.885Z,4.50
2022-08-17T02:48:02.068Z,4.00
2022-08-17T02:49:09.953Z,3.70
2022-08-17T02:50:18.342Z,4.20
2022-08-17T02:51:25.865Z,3.60
2022-08-17T02:53:01.965Z,4.10
2022-08-17T02:54:41.608Z,3.50
2022-08-17T02:55:37.592Z,3.60
2022-08-17T02:56:45.032Z,3.80
2022-08-17T02:57:52.568Z,4.50
2022-08-17T02:59:00.260Z,3.50
2022-08-17T03:00:11.861Z,3.60
2022-08-17T03:01:19.000Z,3.50
2022-08-17T03:02:25.867Z,3.70
2022-08-17T03:03:33.122Z,3.90
2022-08-17T03:04:40.391Z,3.80
2022-08-17T03:05:49.831Z,4.30
2022-08-17T03:06:58.956Z,4.00
2022-08-17T03:08:11.677Z,4.30
2022-08-17T03:09:21.095Z,3.80
2022-08-17T03:10:28.096Z,3.80
2022-08-17T03:11:35.301Z,4.10
2022-08-17T03:12:43.455Z,4.00
2022-08-17T03:13:50.666Z,4.10
2022-08-17T03:14:57.627Z,4.30
2022-08-17T03:16:04.875Z,4.50
2022-08-17T03:17:17.161Z,3.90
2022-08-17T03:18:26.980Z,4.10
2022-08-17T03:19:34.470Z,4.50
2022-08-17T03:20:47.563Z,4.70
2022-08-17T03:21:55.550Z,4.80
2022-08-17T03:23:03.299Z,3.90
2022-08-17T03:24:10.892Z,4.40
2022-08-17T03:25:20.372Z,3.60
2022-08-17T03:26:30.500Z,4.60
2022-08-17T03:27:38.190Z,4.20
2022-08-17T03:28:50.099Z,4.60
2022-08-17T03:29:57.413Z,4.40
2022-08-17T03:31:04.627Z,4.70
2022-08-17T03:32:15.617Z,4.40
2022-08-17T03:33:23.033Z,4.30
2022-08-17T03:34:30.060Z,4.00
2022-08-17T03:35:42.958Z,4.30
2022-08-17T03:36:50.920Z,4.80
2022-08-17T03:38:00.647Z,4.40
2022-08-17T03:39:09.337Z,4.60
2022-08-17T03:40:18.501Z,4.90
2022-08-17T03:41:47.130Z,4.80
2022-08-17T03:42:56.064Z,4.50
2022-08-17T03:44:04.403Z,4.70
2022-08-17T03:45:40.311Z,4.30
2022-08-17T03:47:08.460Z,4.50
2022-08-17T03:48:34.175Z,4.10
2022-08-17T03:50:00.848Z,4.30
2022-08-17T03:51:37.992Z,4.50
2022-08-17T03:53:04.666Z,4.50
2022-08-17T03:54:31.789Z,4.10
2022-08-17T03:56:03.183Z,4.60
2022-08-17T03:57:32.798Z,3.90
2022-08-17T03:58:43.542Z,4.20
2022-08-17T03:59:52.030Z,3.90
2022-08-17T04:01:01.616Z,4.50
2022-08-17T04:02:16.296Z,4.50
2022-08-17T04:03:23.758Z,4.60
2022-08-17T04:04:33.766Z,4.60
2022-08-17T04:05:41.336Z,4.20
2022-08-17T04:06:48.634Z,4.50
2022-08-17T04:07:55.216Z,4.40
2022-08-17T04:09:02.469Z,4.60
2022-08-17T04:10:10.091Z,4.80
2022-08-17T04:11:17.359Z,4.20
2022-08-17T04:12:25.010Z,4.90
2022-08-17T04:13:32.068Z,4.10
2022-08-17T04:14:53.382Z,4.10
2022-08-17T04:16:03.703Z,4.00
2022-08-17T04:17:13.208Z,4.70
2022-08-17T04:18:21.453Z,4.50
2022-08-17T04:19:29.186Z,4.40
2022-08-17T04:20:36.781Z,4.30
2022-08-17T04:21:45.145Z,4.70
2022-08-17T04:23:13.545Z,4.40
2022-08-17T04:24:21.568Z,4.20
2022-08-17T04:25:29.692Z,4.10
2022-08-17T04:26:53.972Z,4.20
2022-08-17T04:28:04.095Z,4.20
2022-08-17T04:29:16.044Z,4.40
2022-08-17T04:30:24.462Z,4.00
2022-08-17T04:31:33.694Z,4.50
2022-08-17T04:33:06.019Z,4.00
2022-08-17T04:34:15.790Z,4.90
2022-08-17T04:35:30.184Z,4.40
2022-08-17T04:36:40.361Z,4.70
2022-08-17T04:37:58.450Z,4.40
2022-08-17T04:39:07.122Z,4.30
2022-08-17T04:40:47.653Z,4.10
2022-08-17T04:42:18.807Z,4.10
2022-08-17T04:43:27.895Z,4.40
2022-08-17T04:44:37.661Z,4.80
2022-08-17T04:45:55.632Z,4.40
2022-08-17T04:47:05.798Z,4.40
2022-08-17T04:48:13.718Z,4.30
2022-08-17T04:49:22.174Z,4.30
2022-08-17T04:50:30.238Z,5.00
2022-08-17T04:51:45.481Z,4.80
2022-08-17T04:53:03.968Z,4.50
2022-08-17T04:54:15.109Z,4.50
2022-08-17T04:55:23.483Z,4.60
2022-08-17T04:56:30.643Z,4.30
2022-08-17T04:57:41.810Z,4.70
2022-08-17T04:58:54.377Z,4.30
2022-08-17T05:00:02.816Z,4.70
2022-08-17T05:01:11.912Z,4.70
2022-08-17T05:02:20.964Z,4.10
2022-08-17T05:03:28.436Z,4.60
2022-08-17T05:04:36.087Z,4.30
2022-08-17T05:05:51.625Z,4.40
2022-08-17T05:07:00.611Z,3.90
2022-08-17T05:08:09.527Z,3.70
2022-08-17T05:09:19.622Z,4.90
2022-08-17T05:10:28.462Z,3.50
2022-08-17T05:11:35.942Z,3.90
2022-08-17T05:12:44.174Z,3.50
2022-08-17T05:13:53.213Z,3.60
2022-08-17T05:15:01.948Z,4.10
2022-08-17T05:16:10.756Z,3.80
2022-08-17T05:17:18.990Z,4.00
2022-08-17T05:18:27.085Z,4.00
2022-08-17T05:19:34.992Z,3.80
2022-08-17T05:20:45.457Z,4.70
2022-08-17T05:21:54.198Z,4.00
2022-08-17T05:23:05.926Z,4.30
2022-08-17T05:24:41.251Z,3.80
2022-08-17T05:25:50.387Z,4.10
2022-08-17T05:27:06.022Z,4.10
2022-08-17T05:28:16.020Z,3.90
2022-08-17T05:29:35.334Z,4.40
2022-08-17T05:30:44.542Z,4.20
2022-08-17T05:31:52.565Z,4.00
2022-08-17T05:33:07.478Z,3.80
2022-08-17T05:34:15.555Z,4.00
2022-08-17T05:35:23.775Z,3.90
2022-08-17T05:36:43.660Z,3.90
2022-08-17T05:37:52.902Z,4.40
2022-08-17T05:39:01.553Z,3.70
2022-08-17T05:40:11.683Z,4.20
2022-08-17T05:41:20.256Z,4.10
2022-08-17T05:42:28.388Z,4.00
2022-08-17T05:43:38.168Z,4.40
2022-08-17T05:44:45.678Z,3.80
2022-08-17T05:46:06.329Z,3.90
2022-08-17T05:47:14.819Z,3.90
2022-08-17T05:48:36.741Z,4.50
2022-08-17T05:49:49.325Z,4.50
2022-08-17T05:51:07.094Z,4.20
2022-08-17T05:52:36.608Z,3.90
2022-08-17T05:54:01.032Z,3.60
2022-08-17T05:55:18.475Z,3.60
2022-08-17T05:56:48.138Z,3.90
2022-08-17T05:58:01.511Z,3.40
2022-08-17T05:59:12.895Z,4.20
2022-08-17T06:00:30.397Z,3.60
2022-08-17T06:02:15.066Z,3.20
2022-08-17T06:03:29.207Z,3.10
2022-08-17T06:04:47.174Z,3.80
2022-08-17T06:06:16.884Z,3.80
2022-08-17T06:07:26.583Z,3.50
2022-08-17T06:08:53.457Z,3.50
2022-08-17T06:10:08.624Z,3.30
2022-08-17T06:11:30.430Z,3.50
2022-08-17T06:13:12.782Z,3.80
2022-08-17T06:14:32.475Z,3.90
2022-08-17T06:15:57.456Z,4.10
2022-08-17T06:17:11.263Z,3.70
2022-08-17T06:18:19.250Z,3.80
2022-08-17T06:19:50.354Z,4.30
2022-08-17T06:21:06.185Z,2.90
2022-08-17T06:22:16.623Z,3.60
2022-08-17T06:23:31.814Z,3.60
2022-08-17T06:25:27.882Z,3.80
2022-08-17T06:26:42.746Z,4.00
2022-08-17T06:27:57.405Z,3.70
2022-08-17T06:29:26.562Z,3.40
2022-08-17T06:30:59.294Z,3.30
2022-08-17T06:32:10.196Z,3.80
2022-08-17T06:33:26.358Z,4.00
2022-08-17T06:34:35.278Z,3.80
2022-08-17T06:36:17.289Z,3.20
2022-08-17T06:37:43.012Z,3.20
2022-08-17T06:39:10.510Z,3.10
2022-08-17T06:40:18.616Z,3.40
2022-08-17T06:41:54.205Z,3.00
2022-08-17T06:43:08.426Z,4.10
2022-08-17T06:44:43.551Z,3.40
2022-08-17T06:46:01.584Z,3.30
2022-08-17T06:47:28.931Z,3.50
2022-08-17T06:48:59.179Z,3.20
2022-08-17T06:50:10.659Z,3.50
2022-08-17T06:51:33.190Z,3.30
2022-08-17T06:53:22.185Z,2.90
2022-08-17T06:54:57.216Z,3.10
2022-08-17T06:56:10.313Z,3.10
2022-08-17T06:57:22.622Z,3.10
2022-08-17T06:58:33.599Z,3.30
2022-08-17T07:00:03.190Z,3.10
2022-08-17T07:01:17.869Z,3.00
2022-08-17T07:02:53.196Z,3.20
2022-08-17T07:04:20.175Z,3.20
2022-08-17T07:05:46.326Z,3.20
2022-08-17T07:07:39.642Z,3.40
2022-08-17T07:08:58.425Z,3.00
2022-08-17T07:10:09.295Z,4.10
2022-08-17T07:11:23.427Z,3.70
2022-08-17T07:12:39.324Z,3.40
2022-08-17T07:14:13.953Z,3.60
2022-08-17T07:15:30.374Z,3.40
2022-08-17T07:16:42.704Z,3.10
2022-08-17T07:17:50.523Z,3.10
2022-08-17T07:18:58.874Z,3.40
2022-08-17T07:20:10.682Z,3.20
2022-08-17T07:21:51.475Z,3.60
2022-08-17T07:23:02.827Z,3.50
2022-08-17T07:24:29.670Z,3.50
2022-08-17T07:25:38.510Z,3.00
2022-08-17T07:26:51.396Z,3.00
2022-08-17T07:28:02.366Z,3.00
2022-08-17T07:29:15.843Z,3.20
2022-08-17T07:30:28.233Z,3.10
2022-08-17T07:31:35.272Z,3.30
2022-08-17T07:33:03.534Z,3.40
2022-08-17T07:34:15.882Z,3.70
2022-08-17T07:35:40.841Z,3.70
2022-08-17T07:36:55.574Z,3.50
2022-08-17T07:38:24.234Z,3.60
2022-08-17T07:39:33.586Z,3.80
2022-08-17T07:40:46.997Z,3.80
2022-08-17T07:41:58.957Z,3.70
2022-08-17T07:43:08.641Z,3.30
2022-08-17T07:44:21.756Z,3.80
2022-08-17T07:45:47.205Z,3.30
2022-08-17T07:47:14.524Z,3.00
2022-08-17T07:48:28.804Z,3.70
2022-08-17T07:49:41.494Z,3.10
2022-08-17T07:50:49.600Z,3.20
2022-08-17T07:52:00.472Z,3.40
2022-08-17T07:53:28.474Z,3.70
2022-08-17T07:54:39.712Z,3.70
2022-08-17T07:55:46.874Z,3.50
2022-08-17T07:57:21.303Z,3.10
2022-08-17T07:58:28.342Z,3.10
2022-08-17T07:59:39.356Z,3.30
2022-08-17T08:01:11.294Z,3.80
2022-08-17T08:02:35.796Z,3.40
2022-08-17T08:03:44.293Z,3.40
2022-08-17T08:05:01.863Z,3.60
2022-08-17T08:06:23.553Z,3.40
2022-08-17T08:07:37.430Z,3.30
2022-08-17T08:08:44.517Z,3.60
2022-08-17T08:10:11.382Z,3.40
2022-08-17T08:11:30.381Z,3.40
2022-08-17T08:12:47.172Z,3.30
2022-08-17T08:13:54.183Z,3.50
2022-08-17T08:15:16.753Z,3.70
2022-08-17T08:16:30.409Z,3.60
2022-08-17T08:17:47.544Z,3.50
2022-08-17T08:18:59.721Z,3.30
2022-08-17T08:20:37.874Z,3.70
2022-08-17T08:21:52.184Z,3.20
2022-08-17T08:23:21.348Z,3.70
2022-08-17T08:24:38.324Z,3.70
2022-08-17T08:26:18.586Z,3.30
2022-08-17T08:27:47.448Z,3.80
2022-08-17T08:29:24.813Z,4.00
2022-08-17T08:30:33.669Z,4.20
2022-08-17T08:32:18.783Z,3.70
2022-08-17T08:33:39.505Z,3.30
2022-08-17T08:35:11.701Z,3.80
2022-08-17T08:36:57.108Z,3.80
2022-08-17T08:38:42.134Z,4.00
2022-08-17T08:40:12.231Z,3.50
2022-08-17T08:41:37.390Z,3.50
2022-08-17T08:42:54.873Z,4.00
2022-08-17T08:44:11.292Z,3.40
2022-08-17T08:45:23.134Z,3.60
2022-08-17T08:47:01.510Z,3.90
2022-08-17T08:48:56.550Z,3.70
2022-08-17T08:50:37.745Z,3.60
2022-08-17T08:51:49.145Z,3.20
2022-08-17T08:53:24.924Z,4.00
2022-08-17T08:54:41.386Z,3.90
2022-08-17T08:56:02.336Z,3.40
2022-08-17T08:57:29.007Z,3.80
2022-08-17T08:59:03.224Z,3.30
2022-08-17T09:00:18.451Z,3.50
2022-08-17T09:01:47.770Z,3.70
2022-08-17T09:03:13.108Z,3.30
2022-08-17T09:05:13.003Z,3.50
2022-08-17T09:06:37.431Z,3.40
2022-08-17T09:07:59.788Z,3.40
2022-08-17T09:09:28.456Z,3.30
2022-08-17T09:11:04.198Z,3.50
2022-08-17T09:12:34.968Z,3.80
2022-08-17T09:13:46.436Z,3.70
2022-08-17T09:15:24.398Z,3.70
2022-08-17T09:16:44.747Z,4.20
2022-08-17T09:19:01.517Z,3.90
2022-08-17T09:20:14.477Z,3.60
2022-08-17T09:21:48.030Z,4.30
2022-08-17T09:23:11.099Z,4.00
2022-08-17T09:24:35.121Z,3.90
2022-08-17T09:25:53.817Z,4.00
2022-08-17T09:27:15.127Z,4.80
2022-08-17T09:28:25.489Z,4.10
2022-08-17T09:29:36.249Z,3.70
2022-08-17T09:30:48.138Z,4.10
2022-08-17T09:32:06.649Z,3.70
2022-08-17T09:33:14.930Z,4.20
2022-08-17T09:34:48.438Z,4.00
2022-08-17T09:36:34.868Z,3.50
2022-08-17T09:38:14.129Z,3.70
2022-08-17T09:39:32.896Z,3.70
2022-08-17T09:41:06.160Z,3.70
2022-08-17T09:42:16.380Z,3.60
2022-08-17T09:43:46.600Z,4.20
2022-08-17T09:45:05.760Z,4.20
2022-08-17T09:46:20.369Z,3.40
2022-08-17T09:47:27.819Z,3.60
2022-08-17T09:48:49.490Z,3.40
2022-08-17T09:50:12.889Z,4.20
2022-08-17T09:51:31.700Z,4.00
2022-08-17T09:52:38.709Z,3.90
2022-08-17T09:53:46.028Z,4.10
2022-08-17T09:54:54.627Z,4.10
2022-08-17T09:56:25.499Z,4.10
2022-08-17T09:58:13.209Z,3.80
2022-08-17T09:59:38.159Z,4.10
2022-08-17T10:00:50.544Z,3.60
2022-08-17T10:02:20.070Z,4.40
2022-08-17T10:03:57.425Z,3.50
2022-08-17T10:05:23.189Z,3.30
2022-08-17T10:06:33.061Z,3.40
2022-08-17T10:07:48.204Z,3.80
2022-08-17T10:09:09.901Z,3.80
2022-08-17T10:10:38.696Z,4.10
2022-08-17T10:12:33.528Z,3.60
2022-08-17T10:13:52.763Z,3.70
2022-08-17T10:15:09.426Z,3.50
2022-08-17T10:16:34.983Z,3.70
2022-08-17T10:18:08.981Z,3.80
2022-08-17T10:19:25.973Z,3.60
2022-08-17T10:21:17.002Z,3.80
2022-08-17T10:23:07.377Z,3.50
2022-08-17T10:25:20.879Z,3.60
2022-08-17T10:26:26.163Z,3.40
2022-08-17T10:27:45.199Z,3.50
2022-08-17T10:29:08.352Z,3.90
2022-08-17T10:30:15.695Z,3.80
2022-08-17T10:31:34.732Z,4.00
2022-08-17T10:32:51.783Z,3.80
2022-08-17T10:34:27.132Z,4.00
2022-08-17T10:35:35.239Z,3.50
2022-08-17T10:36:51.232Z,4.10
2022-08-17T10:38:35.181Z,3.90
2022-08-17T10:40:24.837Z,3.90
2022-08-17T10:41:44.997Z,4.00
2022-08-17T10:43:30.611Z,4.00
2022-08-17T10:44:57.851Z,4.00
2022-08-17T10:46:34.830Z,4.40
2022-08-17T10:48:05.043Z,4.70
2022-08-17T10:49:24.099Z,4.30
2022-08-17T10:50:57.450Z,4.80
2022-08-17T10:52:25.216Z,3.90
2022-08-17T10:53:35.370Z,4.20
2022-08-17T10:54:50.073Z,4.30
2022-08-17T10:56:15.862Z,4.20
2022-08-17T10:57:29.004Z,3.90
2022-08-17T10:58:56.066Z,4.80
2022-08-17T11:00:27.542Z,4.40
2022-08-17T11:01:41.432Z,4.50
2022-08-17T11:02:57.518Z,4.60
2022-08-17T11:04:20.083Z,3.70
2022-08-17T11:05:34.713Z,4.30
2022-08-17T11:07:03.422Z,4.00
2022-08-17T11:08:11.788Z,4.40
2022-08-17T11:09:28.965Z,4.10
2022-08-17T11:10:51.839Z,4.20
2022-08-17T11:12:17.681Z,4.10
2022-08-17T11:13:32.543Z,4.10
2022-08-17T11:15:03.483Z,4.60
2022-08-17T11:16:36.603Z,4.20
2022-08-17T11:18:20.959Z,4.20
2022-08-17T11:19:50.028Z,4.50
2022-08-17T11:21:01.493Z,4.50
2022-08-17T11:22:14.133Z,4.00
2022-08-17T11:23:56.230Z,4.10
2022-08-17T11:25:19.193Z,4.30
2022-08-17T11:26:28.636Z,4.40
2022-08-17T11:27:36.260Z,4.40
2022-08-17T11:28:52.567Z,4.70
2022-08-17T11:30:02.909Z,4.60
2022-08-17T11:31:12.063Z,4.30
2022-08-17T11:32:47.739Z,4.30
2022-08-17T11:33:59.060Z,4.90
2022-08-17T11:35:38.093Z,4.70
2022-08-17T11:37:13.492Z,4.50
2022-08-17T11:38:28.420Z,4.80
2022-08-17T11:39:57.132Z,4.90
2022-08-17T11:41:29.104Z,4.40
2022-08-17T11:42:48.632Z,5.10
2022-08-17T11:44:08.233Z,5.20
2022-08-17T11:45:32.108Z,4.20
2022-08-17T11:47:18.792Z,5.00
2022-08-17T11:48:56.591Z,4.70
2022-08-17T11:50:48.664Z,4.60
2022-08-17T11:51:58.002Z,4.60
2022-08-17T11:53:06.843Z,5.00
2022-08-17T11:54:37.352Z,4.50
2022-08-17T11:55:45.056Z,4.70
2022-08-17T11:56:52.911Z,3.90
2022-08-17T11:58:02.951Z,4.70
2022-08-17T11:59:40.672Z,5.00
2022-08-17T12:00:48.002Z,4.70
2022-08-17T12:01:56.911Z,4.60
2022-08-17T12:03:33.500Z,5.00
2022-08-17T12:04:40.788Z,5.00
2022-08-17T12:05:48.632Z,5.30
2022-08-17T12:07:28.173Z,5.20
2022-08-17T12:08:35.643Z,4.20
2022-08-17T12:09:44.742Z,4.50
2022-08-17T12:12:11.350Z,4.30
2022-08-17T12:12:50.778Z,4.50
2022-08-17T12:13:59.676Z,4.70
2022-08-17T12:15:10.937Z,4.40
2022-08-17T12:16:20.239Z,4.60
2022-08-17T12:17:39.556Z,3.90
2022-08-17T12:18:59.861Z,4.50
2022-08-17T12:20:14.640Z,5.00
2022-08-17T12:21:46.602Z,4.80
2022-08-17T12:23:02.756Z,4.50
2022-08-17T12:24:19.552Z,4.20
2022-08-17T12:25:52.585Z,4.70
2022-08-17T12:27:02.174Z,4.10
2022-08-17T12:28:33.351Z,4.40
2022-08-17T12:29:43.741Z,4.50
2022-08-17T12:30:52.422Z,4.40
2022-08-17T12:32:00.686Z,4.50
2022-08-17T12:33:25.750Z,4.50
2022-08-17T12:34:41.960Z,4.20
2022-08-17T12:35:49.833Z,4.50
2022-08-17T12:37:03.502Z,4.60
2022-08-17T12:38:30.386Z,4.60
2022-08-17T12:39:41.851Z,5.20
2022-08-17T12:40:58.208Z,4.90
2022-08-17T12:42:06.784Z,5.10
2022-08-17T12:43:28.683Z,5.20
2022-08-17T12:44:46.119Z,5.20
2022-08-17T12:46:13.455Z,4.60
2022-08-17T12:47:23.838Z,4.80
2022-08-17T12:48:33.309Z,5.20
2022-08-17T12:49:43.917Z,5.30
2022-08-17T12:50:51.875Z,4.90
2022-08-17T12:52:24.625Z,4.70
2022-08-17T12:53:34.093Z,4.60
2022-08-17T12:55:04.345Z,4.80
2022-08-17T12:56:13.744Z,4.90
2022-08-17T12:57:41.616Z,5.40
2022-08-17T12:58:56.972Z,4.80
2022-08-17T13:00:47.518Z,5.50
2022-08-17T13:01:55.532Z,5.20
2022-08-17T13:03:18.625Z,5.00
2022-08-17T13:04:29.634Z,5.30
2022-08-17T13:05:39.832Z,4.60
2022-08-17T13:06:52.665Z,5.00
2022-08-17T13:08:29.905Z,4.60
2022-08-17T13:09:40.269Z,5.90
2022-08-17T13:11:06.286Z,5.50
2022-08-17T13:12:14.689Z,5.90
2022-08-17T13:13:26.658Z,5.90
2022-08-17T13:14:35.023Z,5.20
2022-08-17T13:15:54.047Z,5.70
2022-08-17T13:17:02.788Z,5.20
2022-08-17T13:18:30.016Z,5.60
2022-08-17T13:19:41.529Z,5.30
2022-08-17T13:20:55.270Z,5.90
2022-08-17T13:22:04.687Z,5.50
2022-08-17T13:23:15.199Z,4.40
2022-08-17T13:24:26.547Z,5.10
2022-08-17T13:25:34.046Z,4.80
2022-08-17T13:26:44.955Z,5.50
2022-08-17T13:27:54.816Z,5.40
2022-08-17T13:29:03.503Z,6.00
2022-08-17T13:30:13.735Z,6.00
2022-08-17T13:31:31.636Z,5.90
2022-08-17T13:32:44.029Z,6.10
2022-08-17T13:33:53.110Z,6.30
2022-08-17T13:35:16.269Z,6.50
2022-08-17T13:36:36.865Z,6.50
2022-08-17T13:38:00.635Z,5.60
2022-08-17T13:39:10.754Z,5.90
2022-08-17T13:40:21.872Z,5.70
2022-08-17T13:41:38.090Z,5.40
2022-08-17T13:42:51.935Z,5.40
2022-08-17T13:44:02.234Z,5.50
2022-08-17T13:45:36.578Z,5.80
2022-08-17T13:46:56.983Z,5.70
2022-08-17T13:48:30.290Z,5.40
2022-08-17T13:49:48.325Z,5.50
2022-08-17T13:50:58.075Z,5.60
2022-08-17T13:52:07.072Z,5.60
2022-08-17T13:53:31.189Z,5.50
2022-08-17T13:54:40.568Z,6.30
2022-08-17T13:55:53.586Z,5.80
2022-08-17T13:57:22.852Z,5.20
2022-08-17T13:58:41.264Z,4.90
2022-08-17T13:59:54.867Z,5.20
2022-08-17T14:01:37.072Z,5.20
2022-08-17T14:02:45.257Z,5.00
2022-08-17T14:03:53.584Z,5.20
2022-08-17T14:05:06.199Z,4.80
2022-08-17T14:06:52.477Z,4.60
2022-08-17T14:07:45.595Z,5.00
2022-08-17T14:08:54.043Z,5.10
2022-08-17T14:10:05.382Z,4.90
2022-08-17T14:11:14.217Z,5.40
2022-08-17T14:12:23.374Z,4.60
2022-08-17T14:13:31.515Z,5.00
2022-08-17T14:14:44.470Z,5.00
2022-08-17T14:15:54.738Z,5.60
2022-08-17T14:17:04.806Z,5.00
2022-08-17T14:18:12.471Z,5.30
2022-08-17T14:19:21.015Z,5.00
2022-08-17T14:20:29.492Z,4.70
2022-08-17T14:21:37.525Z,5.10
2022-08-17T14:22:47.095Z,4.60
2022-08-17T14:23:55.218Z,4.60
2022-08-17T14:25:03.491Z,5.20
2022-08-17T14:26:11.998Z,5.10
2022-08-17T14:27:21.175Z,4.80
2022-08-17T14:28:29.205Z,5.00
2022-08-17T14:29:37.505Z,5.40
2022-08-17T14:30:45.437Z,5.10
2022-08-17T14:31:54.612Z,5.50
2022-08-17T14:33:03.469Z,5.10
2022-08-17T14:34:15.466Z,4.80
2022-08-17T14:35:25.736Z,4.60
2022-08-17T14:36:33.857Z,4.60
2022-08-17T14:37:41.356Z,4.80
2022-08-17T14:38:49.430Z,5.00
2022-08-17T14:40:01.743Z,4.50
2022-08-17T14:41:10.081Z,5.20
2022-08-17T14:42:19.014Z,4.90
2022-08-17T14:43:27.266Z,4.70
2022-08-17T14:44:35.564Z,4.50
2022-08-17T14:45:43.996Z,4.60
2022-08-17T14:46:52.553Z,5.10
2022-08-17T14:48:00.939Z,4.70
2022-08-17T14:49:10.090Z,4.60
2022-08-17T14:50:23.538Z,4.90
2022-08-17T14:51:31.836Z,5.10
2022-08-17T14:52:42.276Z,5.10
2022-08-17T14:53:50.750Z,4.80
2022-08-17T14:54:58.367Z,4.90
2022-08-17T14:56:07.030Z,5.30
2022-08-17T14:57:33.009Z,4.60
2022-08-17T14:58:44.936Z,5.00
2022-08-17T14:59:57.694Z,4.90
2022-08-17T15:01:08.896Z,4.50
2022-08-17T15:02:19.748Z,4.80
2022-08-17T15:03:27.337Z,4.60
2022-08-17T15:04:34.519Z,4.90
2022-08-17T15:05:42.662Z,4.90
2022-08-17T15:06:50.417Z,4.00
2022-08-17T15:07:58.155Z,4.80
2022-08-17T15:09:05.854Z,4.10
2022-08-17T15:10:15.362Z,4.60
2022-08-17T15:11:23.507Z,4.70
2022-08-17T15:12:34.229Z,4.50
2022-08-17T15:13:51.954Z,4.80
2022-08-17T15:15:04.771Z,4.50
2022-08-17T15:16:16.019Z,4.60
2022-08-17T15:17:25.421Z,4.50
2022-08-17T15:18:54.062Z,4.60
2022-08-17T15:20:01.574Z,5.00
2022-08-17T15:21:11.595Z,4.50
2022-08-17T15:22:25.945Z,4.80
2022-08-17T15:23:36.638Z,4.20
2022-08-17T15:24:44.530Z,4.70
2022-08-17T15:25:52.617Z,4.30
2022-08-17T15:27:01.105Z,4.50
2022-08-17T15:28:09.136Z,4.30
2022-08-17T15:29:17.893Z,4.30
2022-08-17T15:30:27.077Z,4.50
2022-08-17T15:31:34.704Z,5.10
2022-08-17T15:32:47.521Z,5.50
2022-08-17T15:34:00.279Z,4.70
2022-08-17T15:35:09.305Z,4.60
2022-08-17T15:36:17.910Z,4.90
2022-08-17T15:37:27.071Z,4.70
2022-08-17T15:38:40.657Z,4.80
2022-08-17T15:39:52.615Z,4.20
2022-08-17T15:41:01.100Z,4.20
2022-08-17T15:42:10.226Z,4.40
2022-08-17T15:43:27.291Z,5.80
2022-08-17T15:44:35.770Z,5.20
2022-08-17T15:45:44.266Z,4.50
2022-08-17T15:46:52.176Z,4.80
2022-08-17T15:47:59.987Z,5.40
2022-08-17T15:49:07.866Z,5.30
2022-08-17T15:50:16.166Z,4.70
2022-08-17T15:51:26.457Z,4.80
2022-08-17T15:52:37.268Z,5.10
2022-08-17T15:53:54.839Z,5.50
2022-08-17T15:55:03.468Z,5.60
2022-08-17T15:56:11.428Z,5.30
2022-08-17T15:57:20.322Z,5.30
2022-08-17T15:58:33.596Z,5.00
2022-08-17T15:59:43.362Z,5.30
2022-08-17T16:01:14.349Z,4.50
2022-08-17T16:03:20.362Z,5.30
2022-08-17T16:04:29.722Z,5.00
2022-08-17T16:05:38.023Z,5.20
2022-08-17T16:06:48.786Z,4.70
2022-08-17T16:07:57.418Z,4.10
2022-08-17T16:09:05.570Z,4.70
2022-08-17T16:10:18.663Z,5.00
2022-08-17T16:11:28.309Z,5.10
2022-08-17T16:12:36.949Z,5.10
2022-08-17T16:13:51.293Z,4.90
2022-08-17T16:15:04.936Z,4.70
2022-08-17T16:16:13.111Z,4.80
2022-08-17T16:17:40.206Z,4.60
2022-08-17T16:18:54.705Z,4.80
2022-08-17T16:20:08.789Z,5.00
2022-08-17T16:21:28.325Z,4.90
2022-08-17T16:22:38.640Z,5.00
2022-08-17T16:23:46.862Z,4.90
2022-08-17T16:24:56.937Z,5.30
2022-08-17T16:26:07.010Z,4.70
2022-08-17T16:27:15.835Z,5.00
2022-08-17T16:28:35.717Z,3.90
2022-08-17T16:29:45.156Z,4.70
2022-08-17T16:30:52.962Z,4.60
2022-08-17T16:32:01.589Z,4.10
2022-08-17T16:33:11.029Z,4.90
2022-08-17T16:34:21.435Z,4.70
2022-08-17T16:35:29.215Z,5.10
2022-08-17T16:36:40.847Z,4.20
2022-08-17T16:38:03.188Z,4.30
2022-08-17T16:39:11.555Z,5.00
2022-08-17T16:40:19.779Z,4.70
2022-08-17T16:41:46.971Z,4.50
2022-08-17T16:42:55.604Z,4.50
2022-08-17T16:44:06.184Z,4.90
2022-08-17T16:45:19.639Z,4.00
2022-08-17T16:46:27.030Z,4.10
2022-08-17T16:47:34.192Z,4.40
2022-08-17T16:48:41.286Z,3.90
2022-08-17T16:49:49.542Z,4.00
2022-08-17T16:50:59.985Z,4.50
2022-08-17T16:52:11.744Z,4.50
2022-08-17T16:53:20.073Z,4.80